createdAt,value
2018-06-27T00:00:52.452Z,18.12
2018-06-27T00:01:52.447Z,18.15
2018-06-27T00:02:52.446Z,18.03
2018-06-27T00:03:52.555Z,17.95
2018-06-27T00:04:52.485Z,18.02
2018-06-27T00:05:52.491Z,17.93
2018-06-27T00:06:52.494Z,18.03
2018-06-27T00:07:52.549Z,18.03
2018-06-27T00:08:53.491Z,18.02
2018-06-27T00:09:52.587Z,18.03
2018-06-27T00:10:52.547Z,18.11
2018-06-27T00:11:52.567Z,18.00
2018-06-27T00:12:52.587Z,18.00
2018-06-27T00:13:52.595Z,17.97
2018-06-27T00:14:52.672Z,18.03
2018-06-27T00:15:52.691Z,18.08
2018-06-27T00:16:52.635Z,18.05
2018-06-27T00:17:52.659Z,18.03
2018-06-27T00:18:52.636Z,18.00
2018-06-27T00:19:52.645Z,17.87
2018-06-27T00:20:52.646Z,18.02
2018-06-27T00:21:52.677Z,17.97
2018-06-27T00:22:52.707Z,17.98
2018-06-27T00:23:52.736Z,18.03
2018-06-27T00:24:52.712Z,18.00
2018-06-27T00:25:52.721Z,17.88
2018-06-27T00:26:52.742Z,17.97
2018-06-27T00:27:52.728Z,17.94
2018-06-27T00:28:52.844Z,17.86
2018-06-27T00:29:52.759Z,17.86
2018-06-27T00:30:52.780Z,18.00
2018-06-27T00:31:52.862Z,17.87
2018-06-27T00:32:52.789Z,17.93
2018-06-27T00:33:52.886Z,17.90
2018-06-27T00:34:52.835Z,17.79
2018-06-27T00:35:52.820Z,17.86
2018-06-27T00:36:52.839Z,17.86
2018-06-27T00:37:52.877Z,17.84
2018-06-27T00:38:52.914Z,17.84
2018-06-27T00:39:52.868Z,17.72
2018-06-27T00:40:52.870Z,17.78
2018-06-27T00:41:52.885Z,17.79
2018-06-27T00:42:52.900Z,17.84
2018-06-27T00:43:52.955Z,17.80
2018-06-27T00:44:52.969Z,17.75
2018-06-27T00:45:52.950Z,17.76
2018-06-27T00:46:52.945Z,17.76
2018-06-27T00:47:52.967Z,17.82
2018-06-27T00:48:53.012Z,17.73
2018-06-27T00:49:53.024Z,17.72
2018-06-27T00:50:53.004Z,17.65
2018-06-27T00:51:53.025Z,17.71
2018-06-27T00:52:53.026Z,17.72
2018-06-27T00:53:53.032Z,17.75
2018-06-27T00:54:53.081Z,17.73
2018-06-27T00:55:53.131Z,17.73
2018-06-27T00:56:53.164Z,17.78
2018-06-27T00:57:53.069Z,17.78
2018-06-27T00:58:53.092Z,17.69
2018-06-27T00:59:53.101Z,17.71
2018-06-27T01:00:53.117Z,17.75
2018-06-27T01:01:53.121Z,17.69
2018-06-27T01:02:53.177Z,17.59
2018-06-27T01:03:53.150Z,17.63
2018-06-27T01:04:53.149Z,17.57
2018-06-27T01:05:53.275Z,17.60
2018-06-27T01:06:53.210Z,17.68
2018-06-27T01:07:53.191Z,17.71
2018-06-27T01:08:53.276Z,17.69
2018-06-27T01:09:53.218Z,17.60
2018-06-27T01:10:53.290Z,17.65
2018-06-27T01:11:53.263Z,17.73
2018-06-27T01:12:53.503Z,17.59
2018-06-27T01:13:53.302Z,17.46
2018-06-27T01:14:53.366Z,17.34
2018-06-27T01:15:53.309Z,17.34
2018-06-27T01:16:53.296Z,17.34
2018-06-27T01:17:53.435Z,17.32
2018-06-27T01:18:53.345Z,17.41
2018-06-27T01:19:53.321Z,17.47
2018-06-27T01:20:53.378Z,17.59
2018-06-27T01:21:53.362Z,17.57
2018-06-27T01:22:53.354Z,17.56
2018-06-27T01:23:53.362Z,17.52
2018-06-27T01:24:53.390Z,17.38
2018-06-27T01:25:53.457Z,17.57
2018-06-27T01:26:53.439Z,17.63
2018-06-27T01:27:53.418Z,17.54
2018-06-27T01:28:53.429Z,17.50
2018-06-27T01:29:53.432Z,17.65
2018-06-27T01:30:53.441Z,17.60
2018-06-27T01:31:53.486Z,17.56
2018-06-27T01:32:53.491Z,17.60
2018-06-27T01:33:53.626Z,17.53
2018-06-27T01:34:53.512Z,17.57
2018-06-27T01:35:53.514Z,17.60
2018-06-27T01:36:53.544Z,17.46
2018-06-27T01:37:53.585Z,17.41
2018-06-27T01:38:53.547Z,17.32
2018-06-27T01:39:53.572Z,17.20
2018-06-27T01:40:53.568Z,17.22
2018-06-27T01:41:53.609Z,17.27
2018-06-27T01:42:53.581Z,16.99
2018-06-27T01:43:53.623Z,17.10
2018-06-27T01:44:53.640Z,17.28
2018-06-27T01:45:53.634Z,17.24
2018-06-27T01:46:53.627Z,17.27
2018-06-27T01:47:53.648Z,17.23
2018-06-27T01:48:53.694Z,17.31
2018-06-27T01:49:53.670Z,17.34
2018-06-27T01:50:53.678Z,17.37
2018-06-27T01:51:53.691Z,17.34
2018-06-27T01:52:53.726Z,17.30
2018-06-27T01:53:53.716Z,17.23
2018-06-27T01:54:53.737Z,17.24
2018-06-27T01:55:53.774Z,17.34
2018-06-27T01:56:53.757Z,17.46
2018-06-27T01:57:53.758Z,17.42
2018-06-27T01:58:53.768Z,17.41
2018-06-27T01:59:53.795Z,17.44
2018-06-27T02:00:53.833Z,17.46
2018-06-27T02:01:53.809Z,17.44
2018-06-27T02:02:53.815Z,17.34
2018-06-27T02:03:53.846Z,17.20
2018-06-27T02:04:53.826Z,17.19
2018-06-27T02:05:53.914Z,17.22
2018-06-27T02:06:53.862Z,17.22
2018-06-27T02:07:53.863Z,17.07
2018-06-27T02:08:53.874Z,17.16
2018-06-27T02:09:53.902Z,17.16
2018-06-27T02:10:54.009Z,17.09
2018-06-27T02:11:53.960Z,17.17
2018-06-27T02:12:53.943Z,17.17
2018-06-27T02:13:53.944Z,17.22
2018-06-27T02:14:53.954Z,17.20
2018-06-27T02:15:53.955Z,17.13
2018-06-27T02:16:54.002Z,17.23
2018-06-27T02:17:53.977Z,17.20
2018-06-27T02:18:53.998Z,17.31
2018-06-27T02:19:53.995Z,17.47
2018-06-27T02:20:54.011Z,17.35
2018-06-27T02:21:54.058Z,17.27
2018-06-27T02:22:54.038Z,17.35
2018-06-27T02:23:54.065Z,17.35
2018-06-27T02:24:54.050Z,17.35
2018-06-27T02:25:54.058Z,17.34
2018-06-27T02:26:54.109Z,17.34
2018-06-27T02:27:54.105Z,17.41
2018-06-27T02:28:54.110Z,17.44
2018-06-27T02:29:54.119Z,17.44
2018-06-27T02:30:54.116Z,17.42
2018-06-27T02:31:54.179Z,17.46
2018-06-27T02:32:54.152Z,17.44
2018-06-27T02:33:54.163Z,17.39
2018-06-27T02:34:54.205Z,17.46
2018-06-27T02:35:54.209Z,17.47
2018-06-27T02:36:54.189Z,17.34
2018-06-27T02:37:54.209Z,17.37
2018-06-27T02:38:54.211Z,17.34
2018-06-27T02:39:54.224Z,17.37
2018-06-27T02:40:54.286Z,17.47
2018-06-27T02:41:54.257Z,17.35
2018-06-27T02:42:54.279Z,17.38
2018-06-27T02:43:54.298Z,17.52
2018-06-27T02:44:54.274Z,17.54
2018-06-27T02:45:54.334Z,17.56
2018-06-27T02:46:54.357Z,17.59
2018-06-27T02:47:54.306Z,17.65
2018-06-27T02:48:54.326Z,17.59
2018-06-27T02:49:54.419Z,17.50
2018-06-27T02:50:54.362Z,17.59
2018-06-27T02:51:54.387Z,17.50
2018-06-27T02:52:54.429Z,17.46
2018-06-27T02:53:54.377Z,17.56
2018-06-27T02:54:54.397Z,17.63
2018-06-27T02:55:54.421Z,17.57
2018-06-27T02:56:54.458Z,17.66
2018-06-27T02:57:54.464Z,17.71
2018-06-27T02:58:54.439Z,17.76
2018-06-27T02:59:54.460Z,17.75
2018-06-27T03:00:54.474Z,17.63
2018-06-27T03:01:54.477Z,17.73
2018-06-27T03:02:54.515Z,17.71
2018-06-27T03:03:54.570Z,17.71
2018-06-27T03:04:54.506Z,17.72
2018-06-27T03:05:54.528Z,17.59
2018-06-27T03:06:54.530Z,17.66
2018-06-27T03:07:54.548Z,17.65
2018-06-27T03:08:54.596Z,17.71
2018-06-27T03:09:54.561Z,17.63
2018-06-27T03:10:54.581Z,17.44
2018-06-27T03:11:54.590Z,17.71
2018-06-27T03:12:54.590Z,17.69
2018-06-27T03:13:54.647Z,17.71
2018-06-27T03:14:54.639Z,17.54
2018-06-27T03:15:54.639Z,17.59
2018-06-27T03:16:54.635Z,17.63
2018-06-27T03:17:54.654Z,17.59
2018-06-27T03:18:54.715Z,17.60
2018-06-27T03:19:54.674Z,17.71
2018-06-27T03:20:54.706Z,17.59
2018-06-27T03:21:54.725Z,17.69
2018-06-27T03:22:54.698Z,17.59
2018-06-27T03:23:54.762Z,17.75
2018-06-27T03:24:54.730Z,17.71
2018-06-27T03:25:54.893Z,17.71
2018-06-27T03:26:54.743Z,17.63
2018-06-27T03:27:54.767Z,17.60
2018-06-27T03:28:54.833Z,17.72
2018-06-27T03:29:54.835Z,17.79
2018-06-27T03:30:54.792Z,17.80
2018-06-27T03:31:54.818Z,17.78
2018-06-27T03:32:54.828Z,17.73
2018-06-27T03:33:54.895Z,17.63
2018-06-27T03:34:54.839Z,17.54
2018-06-27T03:35:54.871Z,17.75
2018-06-27T03:36:55.375Z,17.68
2018-06-27T03:37:56.363Z,17.71
2018-06-27T03:38:57.966Z,17.78
2018-06-27T03:39:54.946Z,17.88
2018-06-27T03:40:54.915Z,17.76
2018-06-27T03:41:54.919Z,17.75
2018-06-27T03:42:54.943Z,17.68
2018-06-27T03:43:54.968Z,17.76
2018-06-27T03:44:54.984Z,17.87
2018-06-27T03:45:54.980Z,17.90
2018-06-27T03:46:54.993Z,18.00
2018-06-27T03:47:55.019Z,17.87
2018-06-27T03:48:55.040Z,17.94
2018-06-27T03:49:55.010Z,18.11
2018-06-27T03:50:55.075Z,18.03
2018-06-27T03:51:55.065Z,18.03
2018-06-27T03:52:55.053Z,18.03
2018-06-27T03:53:55.104Z,18.11
2018-06-27T03:54:55.078Z,18.05
2018-06-27T03:55:55.093Z,17.95
2018-06-27T03:56:55.089Z,18.00
2018-06-27T03:57:55.119Z,18.05
2018-06-27T03:58:55.210Z,18.16
2018-06-27T03:59:55.127Z,18.11
2018-06-27T04:00:55.134Z,18.23
2018-06-27T04:01:55.156Z,18.16
2018-06-27T04:02:55.205Z,18.30
2018-06-27T04:03:55.170Z,18.28
2018-06-27T04:04:55.245Z,18.26
2018-06-27T04:05:55.206Z,18.28
2018-06-27T04:06:55.209Z,18.28
2018-06-27T04:07:55.236Z,18.42
2018-06-27T04:08:55.247Z,18.34
2018-06-27T04:09:55.273Z,18.26
2018-06-27T04:10:55.252Z,18.34
2018-06-27T04:11:55.280Z,18.37
2018-06-27T04:12:55.424Z,18.26
2018-06-27T04:13:55.331Z,18.28
2018-06-27T04:14:55.303Z,18.36
2018-06-27T04:15:55.311Z,18.43
2018-06-27T04:16:55.324Z,18.49
2018-06-27T04:17:55.404Z,18.53
2018-06-27T04:18:55.392Z,18.61
2018-06-27T04:19:55.376Z,18.53
2018-06-27T04:20:55.385Z,18.71
2018-06-27T04:21:55.429Z,18.78
2018-06-27T04:22:55.434Z,18.86
2018-06-27T04:23:55.453Z,18.81
2018-06-27T04:24:55.549Z,18.91
2018-06-27T04:25:55.441Z,19.08
2018-06-27T04:26:55.476Z,19.20
2018-06-27T04:27:55.458Z,19.12
2018-06-27T04:28:55.506Z,19.17
2018-06-27T04:29:55.489Z,19.30
2018-06-27T04:30:55.503Z,19.34
2018-06-27T04:31:55.568Z,19.38
2018-06-27T04:32:55.517Z,19.38
2018-06-27T04:33:55.538Z,19.60
2018-06-27T04:34:55.579Z,19.77
2018-06-27T04:35:55.678Z,19.84
2018-06-27T04:36:55.570Z,19.87
2018-06-27T04:37:55.597Z,20.08
2018-06-27T04:38:55.592Z,20.07
2018-06-27T04:39:55.656Z,20.21
2018-06-27T04:40:55.627Z,20.19
2018-06-27T04:41:55.639Z,20.33
2018-06-27T04:42:55.643Z,20.34
2018-06-27T04:43:55.667Z,20.40
2018-06-27T04:44:55.737Z,20.52
2018-06-27T04:45:55.688Z,20.52
2018-06-27T04:46:55.721Z,20.70
2018-06-27T04:47:55.729Z,20.56
2018-06-27T04:48:55.725Z,20.82
2018-06-27T04:49:55.808Z,20.93
2018-06-27T04:50:55.814Z,20.93
2018-06-27T04:51:55.787Z,21.07
2018-06-27T04:52:55.807Z,21.08
2018-06-27T04:53:55.795Z,21.08
2018-06-27T04:54:55.953Z,21.15
2018-06-27T04:55:55.858Z,21.13
2018-06-27T04:56:55.849Z,21.29
2018-06-27T04:57:55.871Z,21.50
2018-06-27T04:58:55.986Z,21.47
2018-06-27T04:59:55.910Z,21.56
2018-06-27T05:00:55.895Z,21.60
2018-06-27T05:01:55.972Z,21.68
2018-06-27T05:02:55.930Z,21.70
2018-06-27T05:03:55.949Z,21.84
2018-06-27T05:04:55.967Z,21.80
2018-06-27T05:05:56.012Z,21.85
2018-06-27T05:06:56.041Z,21.91
2018-06-27T05:07:56.018Z,21.99
2018-06-27T05:08:56.014Z,22.19
2018-06-27T05:09:56.041Z,22.19
2018-06-27T05:10:56.057Z,22.22
2018-06-27T05:11:56.095Z,22.23
2018-06-27T05:12:56.144Z,22.30
2018-06-27T05:13:56.088Z,22.40
2018-06-27T05:14:56.110Z,22.38
2018-06-27T05:15:56.118Z,22.51
2018-06-27T05:16:56.153Z,22.68
2018-06-27T05:17:56.182Z,22.77
2018-06-27T05:18:56.191Z,22.92
2018-06-27T05:19:56.183Z,22.98
2018-06-27T05:20:56.196Z,22.83
2018-06-27T05:21:56.203Z,22.93
2018-06-27T05:22:56.230Z,23.07
2018-06-27T05:23:56.281Z,23.28
2018-06-27T05:24:56.249Z,23.23
2018-06-27T05:25:56.280Z,23.37
2018-06-27T05:26:56.272Z,23.48
2018-06-27T05:27:56.322Z,23.44
2018-06-27T05:28:56.339Z,23.56
2018-06-27T05:29:56.331Z,23.71
2018-06-27T05:30:56.348Z,23.94
2018-06-27T05:31:56.391Z,23.96
2018-06-27T05:32:56.372Z,24.01
2018-06-27T05:33:56.493Z,23.88
2018-06-27T05:34:56.445Z,23.96
2018-06-27T05:35:56.406Z,24.24
2018-06-27T05:36:56.425Z,24.48
2018-06-27T05:37:56.457Z,24.38
2018-06-27T05:38:56.478Z,24.07
2018-06-27T05:39:56.576Z,24.31
2018-06-27T05:40:56.501Z,24.61
2018-06-27T05:41:56.541Z,24.48
2018-06-27T05:42:56.552Z,24.46
2018-06-27T05:43:56.544Z,24.75
2018-06-27T05:44:56.595Z,24.59
2018-06-27T05:45:56.680Z,24.75
2018-06-27T05:46:56.616Z,24.77
2018-06-27T05:47:56.606Z,24.63
2018-06-27T05:48:56.634Z,24.77
2018-06-27T05:49:56.679Z,24.68
2018-06-27T05:50:56.773Z,24.55
2018-06-27T05:51:56.713Z,24.66
2018-06-27T05:52:56.732Z,24.44
2018-06-27T05:53:56.720Z,24.34
2018-06-27T05:54:56.745Z,24.14
2018-06-27T05:55:56.755Z,24.26
2018-06-27T05:56:56.806Z,24.04
2018-06-27T05:57:56.784Z,23.92
2018-06-27T05:58:56.868Z,23.86
2018-06-27T05:59:56.820Z,23.55
2018-06-27T06:00:56.847Z,23.40
2018-06-27T06:01:56.890Z,23.28
2018-06-27T06:02:56.889Z,23.18
2018-06-27T06:03:56.889Z,23.07
2018-06-27T06:04:56.902Z,22.89
2018-06-27T06:05:56.956Z,22.86
2018-06-27T06:06:56.969Z,22.76
2018-06-27T06:07:56.965Z,22.91
2018-06-27T06:08:56.960Z,22.93
2018-06-27T06:09:57.022Z,22.77
2018-06-27T06:10:57.036Z,22.63
2018-06-27T06:11:57.025Z,22.46
2018-06-27T06:12:57.031Z,22.52
2018-06-27T06:13:57.049Z,22.56
2018-06-27T06:14:57.054Z,22.40
2018-06-27T06:15:57.156Z,22.36
2018-06-27T06:16:57.109Z,22.33
2018-06-27T06:17:57.106Z,22.34
2018-06-27T06:18:57.126Z,22.23
2018-06-27T06:19:57.151Z,22.23
2018-06-27T06:20:57.182Z,22.21
2018-06-27T06:21:57.148Z,22.26
2018-06-27T06:22:57.176Z,22.15
2018-06-27T06:23:57.334Z,22.14
2018-06-27T06:24:57.186Z,21.80
2018-06-27T06:25:57.207Z,21.54
2018-06-27T06:26:57.256Z,21.47
2018-06-27T06:27:57.303Z,21.62
2018-06-27T06:28:57.328Z,21.60
2018-06-27T06:29:57.294Z,21.37
2018-06-27T06:30:57.277Z,21.41
2018-06-27T06:31:57.298Z,21.33
2018-06-27T06:32:57.328Z,21.41
2018-06-27T06:33:57.342Z,21.44
2018-06-27T06:34:57.375Z,21.45
2018-06-27T06:35:57.369Z,21.35
2018-06-27T06:36:57.358Z,21.32
2018-06-27T06:37:57.379Z,21.44
2018-06-27T06:38:57.421Z,21.40
2018-06-27T06:39:57.409Z,21.53
2018-06-27T06:40:57.445Z,21.59
2018-06-27T06:41:57.468Z,21.62
2018-06-27T06:42:57.450Z,21.69
2018-06-27T06:43:57.608Z,21.70
2018-06-27T06:44:57.502Z,21.62
2018-06-27T06:45:57.535Z,21.62
2018-06-27T06:46:57.532Z,21.72
2018-06-27T06:47:57.507Z,21.74
2018-06-27T06:48:57.536Z,21.68
2018-06-27T06:49:57.553Z,21.74
2018-06-27T06:50:57.641Z,21.58
2018-06-27T06:51:57.561Z,21.56
2018-06-27T06:52:57.571Z,21.59
2018-06-27T06:53:57.594Z,21.70
2018-06-27T06:54:57.607Z,21.68
2018-06-27T06:55:57.688Z,21.70
2018-06-27T06:56:57.690Z,21.63
2018-06-27T06:57:57.664Z,21.66
2018-06-27T06:58:57.655Z,21.77
2018-06-27T06:59:57.676Z,21.77
2018-06-27T07:00:57.730Z,21.77
2018-06-27T07:01:57.727Z,21.72
2018-06-27T07:02:57.718Z,21.66
2018-06-27T07:03:57.740Z,21.72
2018-06-27T07:04:57.802Z,21.66
2018-06-27T07:05:57.796Z,21.69
2018-06-27T07:06:57.770Z,21.77
2018-06-27T07:07:57.779Z,21.70
2018-06-27T07:08:57.885Z,21.78
2018-06-27T07:09:57.824Z,21.81
2018-06-27T07:10:57.962Z,21.75
2018-06-27T07:11:57.856Z,21.68
2018-06-27T07:12:57.867Z,21.58
2018-06-27T07:13:57.857Z,21.62
2018-06-27T07:14:57.879Z,21.66
2018-06-27T07:15:57.951Z,21.56
2018-06-27T07:16:57.916Z,21.59
2018-06-27T07:17:57.929Z,21.58
2018-06-27T07:18:57.945Z,21.47
2018-06-27T07:19:57.982Z,21.54
2018-06-27T07:20:58.003Z,21.43
2018-06-27T07:21:57.986Z,21.54
2018-06-27T07:22:57.993Z,21.43
2018-06-27T07:23:58.046Z,21.43
2018-06-27T07:24:58.027Z,21.45
2018-06-27T07:25:58.037Z,21.43
2018-06-27T07:26:58.050Z,21.43
2018-06-27T07:27:58.053Z,21.54
2018-06-27T07:28:58.126Z,21.41
2018-06-27T07:29:58.167Z,21.43
2018-06-27T07:30:58.104Z,21.29
2018-06-27T07:31:58.151Z,21.26
2018-06-27T07:32:58.146Z,21.25
2018-06-27T07:33:58.141Z,21.26
2018-06-27T07:34:58.228Z,21.15
2018-06-27T07:35:58.258Z,21.23
2018-06-27T07:36:58.185Z,21.26
2018-06-27T07:37:58.197Z,21.25
2018-06-27T07:38:58.237Z,21.22
2018-06-27T07:39:58.296Z,21.19
2018-06-27T07:40:58.229Z,21.20
2018-06-27T07:41:58.239Z,21.08
2018-06-27T07:42:58.267Z,21.15
2018-06-27T07:43:58.280Z,21.04
2018-06-27T07:44:58.376Z,21.03
2018-06-27T07:45:58.354Z,21.13
2018-06-27T07:46:58.347Z,21.07
2018-06-27T07:47:58.319Z,21.11
2018-06-27T07:48:58.336Z,21.14
2018-06-27T07:49:58.511Z,21.19
2018-06-27T07:50:58.408Z,21.14
2018-06-27T07:51:58.427Z,21.17
2018-06-27T07:52:58.391Z,21.14
2018-06-27T07:53:58.399Z,21.22
2018-06-27T07:54:58.419Z,21.11
2018-06-27T07:55:58.457Z,21.13
2018-06-27T07:56:58.452Z,21.14
2018-06-27T07:57:58.465Z,21.11
2018-06-27T07:58:58.459Z,21.11
2018-06-27T07:59:58.488Z,21.20
2018-06-27T08:00:58.584Z,21.19
2018-06-27T08:01:58.504Z,21.19
2018-06-27T08:02:58.521Z,21.23
2018-06-27T08:03:58.543Z,21.22
2018-06-27T08:04:58.557Z,21.20
2018-06-27T08:05:58.601Z,21.23
2018-06-27T08:06:58.742Z,21.29
2018-06-27T08:07:58.596Z,21.20
2018-06-27T08:08:58.606Z,21.32
2018-06-27T08:09:58.621Z,21.14
2018-06-27T08:10:58.655Z,21.14
2018-06-27T08:11:58.676Z,21.15
2018-06-27T08:12:58.726Z,21.13
2018-06-27T08:13:58.679Z,21.11
2018-06-27T08:14:58.677Z,21.20
2018-06-27T08:15:58.710Z,21.25
2018-06-27T08:16:58.712Z,21.28
2018-06-27T08:17:58.807Z,21.26
2018-06-27T08:18:58.749Z,21.23
2018-06-27T08:19:58.751Z,21.23
2018-06-27T08:20:58.769Z,21.29
2018-06-27T08:21:58.765Z,21.32
2018-06-27T08:22:58.838Z,21.22
2018-06-27T08:23:58.803Z,21.35
2018-06-27T08:24:58.820Z,21.30
2018-06-27T08:25:58.899Z,21.29
2018-06-27T08:26:59.543Z,21.25
2018-06-27T08:28:01.561Z,21.25
2018-06-27T08:28:58.970Z,21.29
2018-06-27T08:29:58.874Z,21.33
2018-06-27T08:30:58.900Z,21.43
2018-06-27T08:31:58.913Z,21.51
2018-06-27T08:32:58.943Z,21.50
2018-06-27T08:33:59.030Z,21.45
2018-06-27T08:34:58.960Z,21.47
2018-06-27T08:35:58.967Z,21.48
2018-06-27T08:36:58.981Z,21.47
2018-06-27T08:37:59.007Z,21.50
2018-06-27T08:38:59.048Z,21.47
2018-06-27T08:39:59.070Z,21.44
2018-06-27T08:40:59.018Z,21.56
2018-06-27T08:41:59.060Z,21.45
2018-06-27T08:42:59.067Z,21.48
2018-06-27T08:43:59.071Z,21.50
2018-06-27T08:44:59.159Z,21.56
2018-06-27T08:45:59.127Z,21.58
2018-06-27T08:46:59.126Z,21.44
2018-06-27T08:47:59.119Z,21.60
2018-06-27T08:48:59.224Z,21.68
2018-06-27T08:49:59.227Z,21.66
2018-06-27T08:50:59.158Z,21.53
2018-06-27T08:51:59.178Z,21.68
2018-06-27T08:52:59.206Z,21.72
2018-06-27T08:53:59.237Z,21.68
2018-06-27T08:54:59.267Z,21.77
2018-06-27T08:55:59.339Z,21.78
2018-06-27T08:56:59.237Z,21.78
2018-06-27T08:57:59.258Z,21.78
2018-06-27T08:58:59.267Z,21.80
2018-06-27T08:59:59.329Z,21.75
2018-06-27T09:00:59.320Z,21.70
2018-06-27T09:01:59.311Z,21.75
2018-06-27T09:02:59.328Z,21.83
2018-06-27T09:03:59.348Z,21.92
2018-06-27T09:04:59.357Z,21.91
2018-06-27T09:05:59.396Z,21.85
2018-06-27T09:06:59.412Z,21.89
2018-06-27T09:07:59.384Z,21.94
2018-06-27T09:08:59.418Z,21.92
2018-06-27T09:09:59.412Z,21.78
2018-06-27T09:10:59.455Z,21.72
2018-06-27T09:11:59.493Z,21.83
2018-06-27T09:12:59.464Z,21.80
2018-06-27T09:13:59.481Z,21.75
2018-06-27T09:14:59.567Z,21.97
2018-06-27T09:15:59.519Z,21.89
2018-06-27T09:16:59.524Z,22.00
2018-06-27T09:17:59.524Z,21.99
2018-06-27T09:18:59.555Z,21.99
2018-06-27T09:19:59.554Z,21.91
2018-06-27T09:20:59.727Z,21.92
2018-06-27T09:21:59.615Z,22.06
2018-06-27T09:22:59.593Z,22.01
2018-06-27T09:23:59.618Z,21.94
2018-06-27T09:24:59.631Z,22.08
2018-06-27T09:25:59.649Z,22.00
2018-06-27T09:26:59.672Z,22.06
2018-06-27T09:27:59.697Z,22.06
2018-06-27T09:28:59.671Z,22.10
2018-06-27T09:29:59.708Z,22.00
2018-06-27T09:30:59.698Z,21.85
2018-06-27T09:31:59.707Z,21.78
2018-06-27T09:32:59.770Z,22.03
2018-06-27T09:33:59.799Z,22.07
2018-06-27T09:34:59.764Z,22.03
2018-06-27T09:35:59.785Z,21.94
2018-06-27T09:36:59.816Z,21.99
2018-06-27T09:37:59.799Z,21.97
2018-06-27T09:38:59.844Z,21.99
2018-06-27T09:39:59.839Z,21.89
2018-06-27T09:40:59.888Z,21.89
2018-06-27T09:41:59.877Z,21.94
2018-06-27T09:42:59.857Z,22.03
2018-06-27T09:43:59.939Z,22.03
2018-06-27T09:44:59.924Z,22.03
2018-06-27T09:45:59.914Z,21.99
2018-06-27T09:46:59.923Z,22.04
2018-06-27T09:47:59.922Z,22.06
2018-06-27T09:48:59.995Z,22.01
2018-06-27T09:49:59.986Z,22.21
2018-06-27T09:50:59.965Z,22.16
2018-06-27T09:52:00.000Z,22.14
2018-06-27T09:53:00.028Z,22.26
2018-06-27T09:54:00.049Z,22.16
2018-06-27T09:55:00.064Z,22.22
2018-06-27T09:56:00.082Z,22.18
2018-06-27T09:57:00.100Z,22.19
2018-06-27T09:58:00.069Z,22.23
2018-06-27T09:59:00.092Z,22.25
2018-06-27T10:00:00.111Z,22.33
2018-06-27T10:01:00.174Z,22.28
2018-06-27T10:02:00.131Z,22.34
2018-06-27T10:03:00.141Z,22.28
2018-06-27T10:04:00.142Z,22.30
2018-06-27T10:05:00.175Z,22.28
2018-06-27T10:06:00.227Z,22.38
2018-06-27T10:07:00.199Z,22.36
2018-06-27T10:08:00.210Z,22.30
2018-06-27T10:09:00.231Z,22.31
2018-06-27T10:10:00.260Z,22.30
2018-06-27T10:11:00.288Z,22.31
2018-06-27T10:12:00.301Z,22.28
2018-06-27T10:13:00.268Z,22.19
2018-06-27T10:14:00.295Z,22.22
2018-06-27T10:15:00.364Z,22.30
2018-06-27T10:16:00.327Z,22.34
2018-06-27T10:17:00.439Z,22.34
2018-06-27T10:18:00.361Z,22.41
2018-06-27T10:19:00.361Z,22.41
2018-06-27T10:20:00.377Z,22.49
2018-06-27T10:21:00.395Z,22.56
2018-06-27T10:22:00.471Z,22.55
2018-06-27T10:23:00.418Z,22.62
2018-06-27T10:24:00.461Z,22.65
2018-06-27T10:25:00.446Z,22.81
2018-06-27T10:26:00.470Z,22.80
2018-06-27T10:27:00.504Z,22.80
2018-06-27T10:28:00.549Z,22.80
2018-06-27T10:29:00.504Z,22.76
2018-06-27T10:30:00.520Z,22.84
2018-06-27T10:31:00.567Z,22.81
2018-06-27T10:32:00.580Z,22.89
2018-06-27T10:33:00.620Z,22.78
2018-06-27T10:34:00.593Z,22.81
2018-06-27T10:35:00.592Z,22.70
2018-06-27T10:36:00.614Z,22.71
2018-06-27T10:37:00.602Z,22.68
2018-06-27T10:38:00.668Z,22.78
2018-06-27T10:39:00.666Z,22.80
2018-06-27T10:40:00.672Z,22.76
2018-06-27T10:41:00.727Z,22.80
2018-06-27T10:42:00.731Z,22.78
2018-06-27T10:43:00.727Z,22.78
2018-06-27T10:44:00.714Z,22.74
2018-06-27T10:45:00.713Z,22.67
2018-06-27T10:46:00.736Z,22.78
2018-06-27T10:47:00.748Z,22.74
2018-06-27T10:48:00.812Z,22.80
2018-06-27T10:49:00.779Z,22.81
2018-06-27T10:50:00.788Z,22.88
2018-06-27T10:51:00.854Z,22.88
2018-06-27T10:52:00.851Z,22.92
2018-06-27T10:53:00.863Z,22.83
2018-06-27T10:54:00.852Z,22.93
2018-06-27T10:55:00.928Z,22.84
2018-06-27T10:56:00.871Z,22.81
2018-06-27T10:57:00.892Z,22.93
2018-06-27T10:58:00.920Z,22.91
2018-06-27T10:59:00.977Z,22.89
2018-06-27T11:00:00.943Z,22.89
2018-06-27T11:01:00.949Z,22.89
2018-06-27T11:02:00.966Z,22.88
2018-06-27T11:03:00.984Z,22.86
2018-06-27T11:04:01.041Z,22.76
2018-06-27T11:05:01.056Z,22.78
2018-06-27T11:06:01.018Z,22.86
2018-06-27T11:07:01.021Z,22.91
2018-06-27T11:08:01.056Z,22.86
2018-06-27T11:09:01.074Z,22.91
2018-06-27T11:10:01.125Z,22.91
2018-06-27T11:11:01.098Z,22.91
2018-06-27T11:12:01.127Z,22.86
2018-06-27T11:13:01.143Z,22.81
2018-06-27T11:14:01.160Z,22.84
2018-06-27T11:15:01.171Z,22.95
2018-06-27T11:16:01.149Z,22.96
2018-06-27T11:17:01.169Z,22.93
2018-06-27T11:18:01.183Z,22.98
2018-06-27T11:19:01.196Z,23.02
2018-06-27T11:20:01.250Z,22.99
2018-06-27T11:21:01.242Z,23.01
2018-06-27T11:22:01.234Z,23.08
2018-06-27T11:23:01.249Z,23.10
2018-06-27T11:24:01.280Z,23.14
2018-06-27T11:25:01.336Z,23.13
2018-06-27T11:26:01.294Z,23.13
2018-06-27T11:27:01.313Z,23.18
2018-06-27T11:28:01.330Z,23.20
2018-06-27T11:29:01.345Z,23.10
2018-06-27T11:30:01.418Z,23.14
2018-06-27T11:31:01.388Z,23.20
2018-06-27T11:32:01.387Z,23.26
2018-06-27T11:33:01.410Z,23.17
2018-06-27T11:34:01.408Z,23.20
2018-06-27T11:35:01.465Z,23.21
2018-06-27T11:36:01.469Z,23.28
2018-06-27T11:37:01.447Z,23.28
2018-06-27T11:38:01.531Z,23.28
2018-06-27T11:39:01.494Z,23.29
2018-06-27T11:40:01.486Z,23.26
2018-06-27T11:41:01.502Z,23.21
2018-06-27T11:42:01.525Z,23.29
2018-06-27T11:43:01.593Z,23.13
2018-06-27T11:44:01.556Z,23.16
2018-06-27T11:45:02.594Z,23.20
2018-06-27T11:46:01.572Z,23.20
2018-06-27T11:47:01.641Z,23.11
2018-06-27T11:48:01.662Z,23.17
2018-06-27T11:49:01.625Z,23.28
2018-06-27T11:50:01.636Z,23.33
2018-06-27T11:51:01.678Z,23.26
2018-06-27T11:52:01.688Z,23.25
2018-06-27T11:53:01.731Z,23.29
2018-06-27T11:54:01.702Z,23.26
2018-06-27T11:55:01.807Z,23.39
2018-06-27T11:56:01.761Z,23.44
2018-06-27T11:57:01.737Z,23.42
2018-06-27T11:58:01.773Z,23.45
2018-06-27T11:59:01.772Z,23.40
2018-06-27T12:00:01.787Z,23.55
2018-06-27T12:01:01.836Z,23.48
2018-06-27T12:02:01.816Z,23.58
2018-06-27T12:03:01.831Z,23.58
2018-06-27T12:04:01.838Z,23.63
2018-06-27T12:05:01.860Z,23.73
2018-06-27T12:06:01.905Z,23.67
2018-06-27T12:07:01.877Z,23.77
2018-06-27T12:08:01.898Z,23.71
2018-06-27T12:09:01.978Z,23.69
2018-06-27T12:10:01.918Z,23.63
2018-06-27T12:11:01.988Z,23.58
2018-06-27T12:12:01.970Z,23.66
2018-06-27T12:13:01.976Z,23.69
2018-06-27T12:14:02.030Z,23.70
2018-06-27T12:15:01.997Z,23.66
2018-06-27T12:16:02.026Z,23.69
2018-06-27T12:17:02.210Z,23.70
2018-06-27T12:18:02.079Z,23.69
2018-06-27T12:19:02.048Z,23.69
2018-06-27T12:20:02.110Z,23.77
2018-06-27T12:21:02.122Z,23.77
2018-06-27T12:22:02.121Z,23.81
2018-06-27T12:23:02.161Z,23.81
2018-06-27T12:24:02.151Z,23.76
2018-06-27T12:25:02.155Z,23.79
2018-06-27T12:26:02.148Z,23.81
2018-06-27T12:27:02.217Z,23.89
2018-06-27T12:28:02.214Z,23.89
2018-06-27T12:29:02.203Z,23.88
2018-06-27T12:30:02.214Z,23.89
2018-06-27T12:31:02.264Z,23.92
2018-06-27T12:32:02.273Z,24.01
2018-06-27T12:33:02.261Z,23.94
2018-06-27T12:34:02.284Z,24.00
2018-06-27T12:35:02.300Z,24.01
2018-06-27T12:36:02.356Z,24.07
2018-06-27T12:37:02.323Z,24.06
2018-06-27T12:38:02.348Z,24.07
2018-06-27T12:39:02.386Z,24.00
2018-06-27T12:40:02.348Z,24.03
2018-06-27T12:41:02.407Z,24.14
2018-06-27T12:42:02.397Z,24.06
2018-06-27T12:43:02.447Z,24.10
2018-06-27T12:44:02.427Z,24.09
2018-06-27T12:45:02.427Z,24.10
2018-06-27T12:46:02.450Z,24.06
2018-06-27T12:47:02.539Z,24.14
2018-06-27T12:48:02.480Z,24.11
2018-06-27T12:49:02.502Z,24.14
2018-06-27T12:50:02.553Z,24.19
2018-06-27T12:51:02.524Z,24.24
2018-06-27T12:52:02.584Z,24.21
2018-06-27T12:53:02.542Z,24.28